Chasetown, United Kingdom
Current Conditions -  °F | °C
As of 9:50 PM on Tuesday 25 Nov 2014 (Local Time) from EGBB Reporting Station
Light Rain Light Rain  
Wind Chill: 36°   Ceiling: Unl
Heat Index: 41°   Visibility: 2mi
Dew Point: 41°   Wind: 8mph
Humidity: 100%   Direction: 360°N
Pressure: 30.06"   Gusts: NA
Location:  52.67°N, 1.93°W
Report Text: EGBB 252150Z 36007KT 3300 -RADZ BR SCT007 SCT020 05/05 Q1018
Loading
Personal Weather Stations






























Interactive Weather Map New forecast layout! Learn more

10-Day Weather Forecast

Advertisements
Track Severe Weather on mobile